createdAt,value
2023-04-15T00:01:45.632Z,43.07
2023-04-15T00:04:13.594Z,44.00
2023-04-15T00:06:41.806Z,45.67
2023-04-15T00:09:09.581Z,39.87
2023-04-15T00:11:37.301Z,39.67
2023-04-15T00:14:06.223Z,41.47
2023-04-15T00:16:35.660Z,43.47
2023-04-15T00:19:03.541Z,45.53
2023-04-15T00:21:31.551Z,46.33
2023-04-15T00:23:59.316Z,43.13
2023-04-15T00:26:27.075Z,47.53
2023-04-15T00:28:54.820Z,46.97
2023-04-15T00:31:23.158Z,53.23
2023-04-15T00:33:52.446Z,48.77
2023-04-15T00:36:20.165Z,49.17
2023-04-15T00:38:48.177Z,48.53
2023-04-15T00:41:16.048Z,44.57
2023-04-15T00:43:44.022Z,44.40
2023-04-15T00:46:15.280Z,48.70
2023-04-15T00:48:43.589Z,46.60
2023-04-15T00:51:13.199Z,48.30
2023-04-15T00:53:41.183Z,47.77
2023-04-15T00:56:09.198Z,50.07
2023-04-15T00:58:37.147Z,47.33
2023-04-15T01:01:05.376Z,54.17
2023-04-15T01:03:33.366Z,54.70
2023-04-15T01:06:04.053Z,48.70
2023-04-15T01:08:33.636Z,47.80
2023-04-15T01:11:03.493Z,49.83
2023-04-15T01:13:32.341Z,47.27
2023-04-15T01:16:00.197Z,52.40
2023-04-15T01:18:28.605Z,54.77
2023-04-15T01:20:56.698Z,53.27
2023-04-15T01:23:24.604Z,56.50
2023-04-15T01:25:54.801Z,55.00
2023-04-15T01:28:22.742Z,49.50
2023-04-15T01:30:50.636Z,52.70
2023-04-15T01:33:18.502Z,51.13
2023-04-15T01:35:46.412Z,52.67
2023-04-15T01:38:14.683Z,52.67
2023-04-15T01:40:42.540Z,43.10
2023-04-15T01:43:11.726Z,48.40
2023-04-15T01:45:39.417Z,53.93
2023-04-15T01:48:08.038Z,52.20
2023-04-15T01:50:36.900Z,54.63
2023-04-15T01:53:04.627Z,50.87
2023-04-15T01:55:32.561Z,52.17
2023-04-15T01:58:00.261Z,49.93
2023-04-15T02:00:29.961Z,49.73
2023-04-15T02:02:57.853Z,52.00
2023-04-15T02:05:25.629Z,54.90
2023-04-15T02:07:53.774Z,48.50
2023-04-15T02:10:21.755Z,51.60
2023-04-15T02:12:49.530Z,56.93
2023-04-15T02:15:17.359Z,59.33
2023-04-15T02:17:50.977Z,57.33
2023-04-15T02:20:21.089Z,58.90
2023-04-15T02:22:49.311Z,63.57
2023-04-15T02:25:17.880Z,52.73
2023-04-15T02:27:45.711Z,56.77
2023-04-15T02:30:13.630Z,51.30
2023-04-15T02:32:43.833Z,58.40
2023-04-15T02:35:13.288Z,56.03
2023-04-15T02:37:43.830Z,61.57
2023-04-15T02:40:13.135Z,60.70
2023-04-15T02:42:41.069Z,64.20
2023-04-15T02:45:09.822Z,63.30
2023-04-15T02:47:37.583Z,64.80
2023-04-15T02:50:05.813Z,68.93
2023-04-15T02:52:34.886Z,65.37
2023-04-15T02:55:04.310Z,60.90
2023-04-15T02:57:32.026Z,61.13
2023-04-15T02:59:59.730Z,62.20
2023-04-15T03:02:27.723Z,62.60
2023-04-15T03:04:56.235Z,59.10
2023-04-15T03:07:23.997Z,62.23
2023-04-15T03:09:53.153Z,60.33
2023-04-15T03:12:21.059Z,58.23
2023-04-15T03:14:48.810Z,58.20
2023-04-15T03:17:16.574Z,61.03
2023-04-15T03:19:45.300Z,58.43
2023-04-15T03:22:13.025Z,55.37
2023-04-15T03:24:40.915Z,53.13
2023-04-15T03:27:09.963Z,54.67
2023-04-15T03:29:37.685Z,55.53
2023-04-15T03:32:05.793Z,55.53
2023-04-15T03:34:33.500Z,51.13
2023-04-15T03:37:01.418Z,48.37
2023-04-15T03:39:29.147Z,49.47
2023-04-15T03:41:56.877Z,47.03
2023-04-15T03:44:27.002Z,43.93
2023-04-15T03:46:54.872Z,46.00
2023-04-15T03:49:23.246Z,41.70
2023-04-15T03:51:51.088Z,45.07
2023-04-15T03:54:18.783Z,42.47
2023-04-15T03:56:46.585Z,45.53
2023-04-15T03:59:14.291Z,45.77
2023-04-15T04:01:43.439Z,42.50
2023-04-15T04:04:11.773Z,78.27
2023-04-15T04:06:39.633Z,39.73
2023-04-15T04:09:07.414Z,35.33
2023-04-15T04:11:35.274Z,41.73
2023-04-15T04:14:03.010Z,45.87
2023-04-15T04:16:31.031Z,46.43
2023-04-15T04:19:00.403Z,49.43
2023-04-15T04:21:28.704Z,48.30
2023-04-15T04:23:56.822Z,45.77
2023-04-15T04:26:24.572Z,49.77
2023-04-15T04:28:52.274Z,48.40
2023-04-15T04:31:20.118Z,46.40
2023-04-15T04:33:47.886Z,42.27
2023-04-15T04:36:17.053Z,50.23
2023-04-15T04:38:44.761Z,52.23
2023-04-15T04:41:12.521Z,47.43
2023-04-15T04:43:40.210Z,47.80
2023-04-15T04:46:07.996Z,50.40
2023-04-15T04:48:35.867Z,47.80
2023-04-15T04:51:03.673Z,44.77
2023-04-15T04:53:32.760Z,46.70
2023-04-15T04:56:00.818Z,43.13
2023-04-15T04:58:28.543Z,45.33
2023-04-15T05:00:56.733Z,43.47
2023-04-15T05:03:24.631Z,41.43
2023-04-15T05:05:52.905Z,36.43
2023-04-15T05:08:20.710Z,35.40
2023-04-15T05:10:49.842Z,40.53
2023-04-15T05:13:17.554Z,38.00
2023-04-15T05:15:45.466Z,40.23
2023-04-15T05:18:13.217Z,33.87
2023-04-15T05:20:40.928Z,38.67
2023-04-15T05:23:09.072Z,38.07
2023-04-15T05:25:37.183Z,35.83
2023-04-15T05:28:06.578Z,36.63
2023-04-15T05:30:34.376Z,36.67
2023-04-15T05:33:02.205Z,35.27
2023-04-15T05:35:29.990Z,34.23
2023-04-15T05:37:57.703Z,38.07
2023-04-15T05:40:25.447Z,33.60
2023-04-15T05:42:53.261Z,31.90
2023-04-15T05:45:22.416Z,33.43
2023-04-15T05:47:50.963Z,33.53
2023-04-15T05:50:18.856Z,31.50
2023-04-15T05:52:46.881Z,30.13
2023-04-15T05:55:15.244Z,33.43
2023-04-15T05:57:42.955Z,27.63
2023-04-15T06:00:11.854Z,26.33
2023-04-15T06:02:41.187Z,27.10
2023-04-15T06:05:10.006Z,24.33
2023-04-15T06:07:38.130Z,27.27
2023-04-15T06:10:07.280Z,27.83
2023-04-15T06:12:35.160Z,29.30
2023-04-15T06:15:03.957Z,21.23
2023-04-15T06:17:31.710Z,21.97
2023-04-15T06:20:00.778Z,24.70
2023-04-15T06:22:28.517Z,23.17
2023-04-15T06:24:56.513Z,20.80
2023-04-15T06:27:24.341Z,18.50
2023-04-15T06:29:52.061Z,15.90
2023-04-15T06:32:19.797Z,19.03
2023-04-15T06:34:47.533Z,17.27
2023-04-15T06:37:16.921Z,18.27
2023-04-15T06:39:44.718Z,17.70
2023-04-15T06:42:12.917Z,17.33
2023-04-15T06:44:40.694Z,17.20
2023-04-15T06:47:09.119Z,18.20
2023-04-15T06:49:37.053Z,17.63
2023-04-15T06:52:05.307Z,17.43
2023-04-15T06:54:34.348Z,15.77
2023-04-15T06:57:02.125Z,16.60
2023-04-15T06:59:30.043Z,15.30
2023-04-15T07:01:57.814Z,16.07
2023-04-15T07:04:25.719Z,14.80
2023-04-15T07:06:54.075Z,17.50
2023-04-15T07:09:21.775Z,16.23
2023-04-15T07:11:51.600Z,17.97
2023-04-15T07:14:19.555Z,16.83
2023-04-15T07:16:47.457Z,15.70
2023-04-15T07:19:15.206Z,16.60
2023-04-15T07:21:42.992Z,16.23
2023-04-15T07:24:11.425Z,18.70
2023-04-15T07:26:39.680Z,14.83
2023-04-15T07:29:08.789Z,14.77
2023-04-15T07:31:37.229Z,15.93
2023-04-15T07:34:05.618Z,17.43
2023-04-15T07:36:33.380Z,14.43
2023-04-15T07:39:02.253Z,15.63
2023-04-15T07:41:30.583Z,14.07
2023-04-15T07:43:58.388Z,18.20
2023-04-15T07:46:28.436Z,17.33
2023-04-15T07:48:56.320Z,15.37
2023-04-15T07:51:24.131Z,20.90
2023-04-15T07:53:51.967Z,17.43
2023-04-15T07:56:19.930Z,17.20
2023-04-15T07:58:47.638Z,17.13
2023-04-15T08:01:15.382Z,18.27
2023-04-15T08:03:44.645Z,16.80
2023-04-15T08:06:12.535Z,16.33
2023-04-15T08:08:40.242Z,19.20
2023-04-15T08:11:08.042Z,17.60
2023-04-15T08:13:36.098Z,19.67
2023-04-15T08:16:20.960Z,18.13
2023-04-15T08:18:51.455Z,18.53
2023-04-15T08:21:20.300Z,21.37
2023-04-15T08:23:50.178Z,18.07
2023-04-15T08:26:18.395Z,16.83
2023-04-15T08:28:47.050Z,18.53
2023-04-15T08:31:16.389Z,17.20
2023-04-15T08:33:44.324Z,17.73
2023-04-15T08:36:14.982Z,17.70
2023-04-15T08:38:42.701Z,17.27
2023-04-15T08:41:20.116Z,16.00
2023-04-15T08:43:53.523Z,16.37
2023-04-15T08:46:22.719Z,17.47
2023-04-15T08:48:51.393Z,16.67
2023-04-15T08:51:23.257Z,18.23
2023-04-15T08:53:53.072Z,16.67
2023-04-15T08:56:24.991Z,16.57
2023-04-15T08:58:52.985Z,17.27
2023-04-15T09:01:21.158Z,18.23
2023-04-15T09:03:50.292Z,18.63
2023-04-15T09:06:19.752Z,16.63
2023-04-15T09:08:47.612Z,15.70
2023-04-15T09:11:15.572Z,17.23
2023-04-15T09:13:43.260Z,17.60
2023-04-15T09:16:11.379Z,16.30
2023-04-15T09:18:40.271Z,16.63
2023-04-15T09:21:11.229Z,16.63
2023-04-15T09:23:42.244Z,16.13
2023-04-15T09:26:09.974Z,16.10
2023-04-15T09:28:43.081Z,14.67
2023-04-15T09:31:12.037Z,15.33
2023-04-15T09:33:56.755Z,15.37
2023-04-15T09:36:25.173Z,15.33
2023-04-15T09:38:58.162Z,17.00
2023-04-15T09:41:27.111Z,16.33
2023-04-15T09:43:54.970Z,14.93
2023-04-15T09:46:42.031Z,15.63
2023-04-15T09:49:10.947Z,14.80
2023-04-15T09:51:39.157Z,16.80
2023-04-15T09:54:08.310Z,14.83
2023-04-15T09:56:37.854Z,15.73
2023-04-15T09:59:06.958Z,15.13
2023-04-15T10:01:34.968Z,14.50
2023-04-15T10:04:05.321Z,14.67
2023-04-15T10:06:34.706Z,14.10
2023-04-15T10:09:03.315Z,14.57
2023-04-15T10:11:34.531Z,15.03
2023-04-15T10:14:03.153Z,14.60
2023-04-15T10:16:34.184Z,14.17
2023-04-15T10:19:04.431Z,13.70
2023-04-15T10:21:32.266Z,15.97
2023-04-15T10:24:01.845Z,15.27
2023-04-15T10:26:30.989Z,14.17
2023-04-15T10:29:01.268Z,15.43
2023-04-15T10:31:29.568Z,13.47
2023-04-15T10:33:58.071Z,15.50
2023-04-15T10:36:26.288Z,13.57
2023-04-15T10:38:54.053Z,12.37
2023-04-15T10:41:23.367Z,12.00
2023-04-15T10:43:53.075Z,12.73
2023-04-15T10:46:37.851Z,11.50
2023-04-15T10:49:11.004Z,12.87
2023-04-15T10:51:41.693Z,11.97
2023-04-15T10:54:14.428Z,12.00
2023-04-15T10:56:44.057Z,14.27
2023-04-15T10:59:12.075Z,13.10
2023-04-15T11:01:54.439Z,12.33
2023-04-15T11:04:54.229Z,12.20
2023-04-15T11:07:43.689Z,12.30
2023-04-15T11:10:54.799Z,12.50
2023-04-15T11:13:25.822Z,11.80
2023-04-15T11:15:59.147Z,11.93
2023-04-15T11:18:30.536Z,12.53
2023-04-15T11:20:59.696Z,11.57
2023-04-15T11:23:33.329Z,13.00
2023-04-15T11:26:05.466Z,13.90
2023-04-15T11:28:33.994Z,13.17
2023-04-15T11:31:08.558Z,14.17
2023-04-15T11:33:37.919Z,14.53
2023-04-15T11:36:06.034Z,16.77
2023-04-15T11:38:35.682Z,15.47
2023-04-15T11:41:03.455Z,14.57
2023-04-15T11:43:35.358Z,15.60
2023-04-15T11:46:04.827Z,16.07
2023-04-15T11:48:33.939Z,15.77
2023-04-15T11:51:04.760Z,13.53
2023-04-15T11:53:40.991Z,13.93
2023-04-15T11:56:10.841Z,13.90
2023-04-15T11:58:39.560Z,15.03
2023-04-15T12:01:08.260Z,14.30
2023-04-15T12:03:40.497Z,14.10
2023-04-15T12:06:19.370Z,13.57
2023-04-15T12:09:09.396Z,13.23
2023-04-15T12:11:40.060Z,12.63
2023-04-15T12:14:10.758Z,12.40
2023-04-15T12:16:48.618Z,11.87
2023-04-15T12:19:20.357Z,10.83
2023-04-15T12:21:50.400Z,10.20
2023-04-15T12:24:22.632Z,10.77
2023-04-15T12:26:52.498Z,9.50
2023-04-15T12:29:21.235Z,10.17
2023-04-15T12:31:54.027Z,10.43
2023-04-15T12:34:29.521Z,10.50
2023-04-15T12:37:00.827Z,9.53
2023-04-15T12:39:31.430Z,8.87
2023-04-15T12:42:00.356Z,10.17
2023-04-15T12:44:29.049Z,9.70
2023-04-15T12:46:57.105Z,10.00
2023-04-15T12:49:25.630Z,11.43
2023-04-15T12:51:56.479Z,16.40
2023-04-15T12:54:25.568Z,10.87
2023-04-15T12:56:54.200Z,9.77
2023-04-15T12:59:23.812Z,10.60
2023-04-15T13:01:53.442Z,11.53
2023-04-15T13:04:22.162Z,10.37
2023-04-15T13:06:50.420Z,11.40
2023-04-15T13:09:18.344Z,10.23
2023-04-15T13:11:47.518Z,11.57
2023-04-15T13:14:15.813Z,10.13
2023-04-15T13:16:43.648Z,10.33
2023-04-15T13:19:11.403Z,10.03
2023-04-15T13:21:39.281Z,9.30
2023-04-15T13:24:08.151Z,11.00
2023-04-15T13:26:36.305Z,11.07
2023-04-15T13:29:05.501Z,9.77
2023-04-15T13:31:33.349Z,10.77
2023-04-15T13:34:01.197Z,9.93
2023-04-15T13:36:29.029Z,10.37
2023-04-15T13:38:57.035Z,10.00
2023-04-15T13:41:24.853Z,10.00
2023-04-15T13:43:52.662Z,11.25
2023-04-15T13:46:22.202Z,10.07
2023-04-15T13:48:50.246Z,10.38
2023-04-15T13:51:18.117Z,15.20
2023-04-15T13:53:45.920Z,11.00
2023-04-15T13:56:13.719Z,10.83
2023-04-15T13:58:42.016Z,10.80
2023-04-15T14:01:09.889Z,10.43
2023-04-15T14:03:39.518Z,10.93
2023-04-15T14:06:08.063Z,11.83
2023-04-15T14:08:35.912Z,11.13
2023-04-15T14:11:03.886Z,11.10
2023-04-15T14:13:31.674Z,10.70
2023-04-15T14:15:59.646Z,11.93
2023-04-15T14:18:27.464Z,11.53
2023-04-15T14:20:56.735Z,13.13
2023-04-15T14:23:24.457Z,11.40
2023-04-15T14:25:52.689Z,11.85
2023-04-15T14:28:20.432Z,12.77
2023-04-15T14:30:48.330Z,12.57
2023-04-15T14:33:16.292Z,13.20
2023-04-15T14:35:44.266Z,12.73
2023-04-15T14:38:13.349Z,13.55
2023-04-15T14:40:42.662Z,13.00
2023-04-15T14:43:10.507Z,14.43
2023-04-15T14:45:41.862Z,11.95
2023-04-15T14:48:12.717Z,13.00
2023-04-15T14:50:41.166Z,13.47
2023-04-15T14:53:08.975Z,13.27
2023-04-15T14:55:38.036Z,13.73
2023-04-15T14:58:06.069Z,14.20
2023-04-15T15:00:33.971Z,13.93
2023-04-15T15:03:01.966Z,14.20
2023-04-15T15:05:29.944Z,12.47
2023-04-15T15:07:57.807Z,12.17
2023-04-15T15:10:32.759Z,12.43
2023-04-15T15:13:14.771Z,14.00
2023-04-15T15:15:43.118Z,12.90
2023-04-15T15:18:11.679Z,13.57
2023-04-15T15:20:39.486Z,14.50
2023-04-15T15:23:07.336Z,14.83
2023-04-15T15:25:35.242Z,13.67
2023-04-15T15:28:03.122Z,14.03
2023-04-15T15:30:32.245Z,13.57
2023-04-15T15:33:00.051Z,13.70
2023-04-15T15:35:28.007Z,14.37
2023-04-15T15:37:55.975Z,18.03
2023-04-15T15:40:23.931Z,14.23
2023-04-15T15:42:51.774Z,14.47
2023-04-15T15:45:19.776Z,14.93
2023-04-15T15:47:49.175Z,13.83
2023-04-15T15:50:16.941Z,14.30
2023-04-15T15:52:44.708Z,14.67
2023-04-15T15:55:12.585Z,14.43
2023-04-15T15:57:40.452Z,14.50
2023-04-15T16:00:12.443Z,13.00
2023-04-15T16:03:05.068Z,14.07
2023-04-15T16:05:29.543Z,14.17
2023-04-15T16:07:57.505Z,14.67
2023-04-15T16:10:25.397Z,13.20
2023-04-15T16:12:53.199Z,16.23
2023-04-15T16:15:21.380Z,13.87
2023-04-15T16:17:49.264Z,13.63
2023-04-15T16:20:17.426Z,13.87
2023-04-15T16:22:46.667Z,12.93
2023-04-15T16:25:14.787Z,12.77
2023-04-15T16:27:54.702Z,11.73
2023-04-15T16:30:27.078Z,12.43
2023-04-15T16:32:54.885Z,14.40
2023-04-15T16:35:22.779Z,12.27
2023-04-15T16:37:51.985Z,12.40
2023-04-15T16:40:19.979Z,13.80
2023-04-15T16:42:47.856Z,13.60
2023-04-15T16:45:16.066Z,12.80
2023-04-15T16:47:44.108Z,13.67
2023-04-15T16:50:12.484Z,12.90
2023-04-15T16:52:40.255Z,13.23
2023-04-15T16:55:09.766Z,13.03
2023-04-15T16:58:00.482Z,14.97
2023-04-15T17:00:25.433Z,11.43
2023-04-15T17:02:53.308Z,12.17
2023-04-15T17:05:21.609Z,12.90
2023-04-15T17:07:49.625Z,14.83
2023-04-15T17:10:19.268Z,12.40
2023-04-15T17:12:47.147Z,13.17
2023-04-15T17:15:14.994Z,11.53
2023-04-15T17:17:42.780Z,12.77
2023-04-15T17:20:12.242Z,12.67
2023-04-15T17:22:40.052Z,11.07
2023-04-15T17:25:08.922Z,11.87
2023-04-15T17:27:38.933Z,12.53
2023-04-15T17:30:08.090Z,10.73
2023-04-15T17:32:35.973Z,12.80
2023-04-15T17:35:06.526Z,11.70
2023-04-15T17:37:34.769Z,11.07
2023-04-15T17:40:03.124Z,11.77
2023-04-15T17:42:30.854Z,12.30
2023-04-15T17:45:00.182Z,12.00
2023-04-15T17:47:28.865Z,10.90
2023-04-15T17:49:56.738Z,16.23
2023-04-15T17:52:24.453Z,11.50
2023-04-15T17:54:52.212Z,12.50
2023-04-15T17:57:19.957Z,13.20
2023-04-15T17:59:48.729Z,13.87
2023-04-15T18:02:18.521Z,13.43
2023-04-15T18:04:46.608Z,14.10
2023-04-15T18:07:15.352Z,14.37
2023-04-15T18:09:44.284Z,14.67
2023-04-15T18:12:12.244Z,20.67
2023-04-15T18:14:40.165Z,16.00
2023-04-15T18:17:08.523Z,13.97
2023-04-15T18:19:37.624Z,14.73
2023-04-15T18:22:05.540Z,13.77
2023-04-15T18:24:33.744Z,13.50
2023-04-15T18:27:01.746Z,14.30
2023-04-15T18:29:31.168Z,13.73
2023-04-15T18:32:00.070Z,12.87
2023-04-15T18:34:28.119Z,11.87
2023-04-15T18:36:58.991Z,11.63
2023-04-15T18:39:27.225Z,11.87
2023-04-15T18:41:56.016Z,11.60
2023-04-15T18:44:24.081Z,12.00
2023-04-15T18:46:51.844Z,12.23
2023-04-15T18:49:19.576Z,12.53
2023-04-15T18:51:47.417Z,13.20
2023-04-15T18:54:16.619Z,13.33
2023-04-15T18:56:44.628Z,14.30
2023-04-15T18:59:29.624Z,14.17
2023-04-15T19:01:58.774Z,13.97
2023-04-15T19:04:28.828Z,13.43
2023-04-15T19:06:57.159Z,14.27
2023-04-15T19:09:26.340Z,14.17
2023-04-15T19:11:54.128Z,14.80
2023-04-15T19:14:22.228Z,14.33
2023-04-15T19:16:50.057Z,15.13
2023-04-15T19:19:17.860Z,14.27
2023-04-15T19:21:47.499Z,16.77
2023-04-15T19:24:15.372Z,14.23
2023-04-15T19:26:44.921Z,15.47
2023-04-15T19:29:12.716Z,14.63
2023-04-15T19:31:40.685Z,17.70
2023-04-15T19:34:08.384Z,16.57
2023-04-15T19:36:36.188Z,16.73
2023-04-15T19:39:04.373Z,16.67
2023-04-15T19:41:32.360Z,16.43
2023-04-15T19:44:03.075Z,18.17
2023-04-15T19:46:31.208Z,17.53
2023-04-15T19:48:59.129Z,18.83
2023-04-15T19:51:28.493Z,18.33
2023-04-15T19:53:56.896Z,19.43
2023-04-15T19:56:25.603Z,21.37
2023-04-15T19:58:53.961Z,19.40
2023-04-15T20:01:23.858Z,19.70
2023-04-15T20:03:53.955Z,20.47
2023-04-15T20:06:22.650Z,18.43
2023-04-15T20:08:50.849Z,21.20
2023-04-15T20:11:18.656Z,21.03
2023-04-15T20:13:46.522Z,21.93
2023-04-15T20:16:14.452Z,20.60
2023-04-15T20:18:43.581Z,22.43
2023-04-15T20:21:11.375Z,21.37
2023-04-15T20:23:39.214Z,22.30
2023-04-15T20:26:07.117Z,19.17
2023-04-15T20:28:36.385Z,18.27
2023-04-15T20:31:04.483Z,35.37
2023-04-15T20:33:32.246Z,20.73
2023-04-15T20:36:01.349Z,16.70
2023-04-15T20:38:29.106Z,15.60
2023-04-15T20:40:57.797Z,15.77
2023-04-15T20:43:26.157Z,10.87
2023-04-15T20:45:54.587Z,8.53
2023-04-15T20:48:22.748Z,9.43
2023-04-15T20:50:50.962Z,7.97
2023-04-15T20:53:20.075Z,8.20
2023-04-15T20:55:47.830Z,8.67
2023-04-15T20:58:15.661Z,8.50
2023-04-15T21:00:45.268Z,9.03
2023-04-15T21:03:13.363Z,9.33
2023-04-15T21:05:41.500Z,8.93
2023-04-15T21:08:09.331Z,7.10
2023-04-15T21:10:40.099Z,7.13
2023-04-15T21:13:07.994Z,8.27
2023-04-15T21:15:36.055Z,8.17
2023-04-15T21:18:03.947Z,7.17
2023-04-15T21:20:31.678Z,7.40
2023-04-15T21:22:59.408Z,8.23
2023-04-15T21:25:27.164Z,10.00
2023-04-15T21:27:56.314Z,11.33
2023-04-15T21:30:25.540Z,8.90
2023-04-15T21:32:53.332Z,8.73
2023-04-15T21:35:21.140Z,8.37
2023-04-15T21:37:48.921Z,9.93
2023-04-15T21:40:18.547Z,10.03
2023-04-15T21:42:47.476Z,7.87
2023-04-15T21:45:16.935Z,11.03
2023-04-15T21:48:05.845Z,8.07
2023-04-15T21:50:32.755Z,7.77
2023-04-15T21:53:00.537Z,7.53
2023-04-15T21:55:28.364Z,7.43
2023-04-15T21:57:56.343Z,7.53
2023-04-15T22:00:25.598Z,8.20
2023-04-15T22:02:53.710Z,7.53
2023-04-15T22:05:21.595Z,8.37
2023-04-15T22:07:49.373Z,7.20
2023-04-15T22:10:17.131Z,7.00
2023-04-15T22:12:44.861Z,8.27
2023-04-15T22:15:12.754Z,7.90
2023-04-15T22:17:41.854Z,10.70
2023-04-15T22:20:10.684Z,8.33
2023-04-15T22:22:44.248Z,7.37
2023-04-15T22:25:12.665Z,10.33
2023-04-15T22:27:40.450Z,10.37
2023-04-15T22:30:09.569Z,11.80
2023-04-15T22:32:37.350Z,9.00
2023-04-15T22:35:07.006Z,9.30
2023-04-15T22:37:34.771Z,10.10
2023-04-15T22:40:02.874Z,8.40
2023-04-15T22:42:30.566Z,8.00
2023-04-15T22:44:58.315Z,8.57
2023-04-15T22:47:26.305Z,10.30
2023-04-15T22:49:54.196Z,12.33
2023-04-15T22:52:30.130Z,11.00
2023-04-15T22:54:58.680Z,9.20
2023-04-15T22:57:27.854Z,12.27
2023-04-15T22:59:55.700Z,9.43
2023-04-15T23:02:23.605Z,10.93
2023-04-15T23:04:51.511Z,9.43
2023-04-15T23:07:19.267Z,9.23
2023-04-15T23:09:48.330Z,10.63
2023-04-15T23:12:16.106Z,10.10
2023-04-15T23:14:43.846Z,8.83
2023-04-15T23:17:11.613Z,12.43
2023-04-15T23:19:39.340Z,12.97
2023-04-15T23:22:10.460Z,9.00
2023-04-15T23:24:38.499Z,8.77
2023-04-15T23:27:07.548Z,9.03
2023-04-15T23:29:36.041Z,10.80
2023-04-15T23:32:04.255Z,9.07
2023-04-15T23:34:32.031Z,9.77
2023-04-15T23:36:59.782Z,10.40
2023-04-15T23:39:27.518Z,10.03
2023-04-15T23:41:56.294Z,9.60
2023-04-15T23:44:25.427Z,9.27
2023-04-15T23:46:53.246Z,10.07
2023-04-15T23:49:21.049Z,10.27
2023-04-15T23:51:48.829Z,9.30
2023-04-15T23:54:16.573Z,11.33
2023-04-15T23:56:44.293Z,10.07
2023-04-15T23:59:12.071Z,9.10
